sensor_id;sensor_type;location;lat;lon;timestamp;P1;durP1;ratioP1;P2;durP2;ratioP2
16524;SDS011;8375;33.594;-117.718;2023-06-22T00:00:41;8.18;;;2.50;;
16524;SDS011;8375;33.594;-117.718;2023-06-22T00:03:10;8.35;;;3.05;;
16524;SDS011;8375;33.594;-117.718;2023-06-22T00:05:39;5.60;;;2.00;;
16524;SDS011;8375;33.594;-117.718;2023-06-22T00:08:09;6.05;;;2.10;;
16524;SDS011;8375;33.594;-117.718;2023-06-22T00:10:37;7.05;;;2.40;;
16524;SDS011;8375;33.594;-117.718;2023-06-22T00:13:07;9.82;;;2.63;;
16524;SDS011;8375;33.594;-117.718;2023-06-22T00:15:36;6.78;;;2.08;;
16524;SDS011;8375;33.594;-117.718;2023-06-22T00:18:05;6.53;;;1.75;;
16524;SDS011;8375;33.594;-117.718;2023-06-22T00:20:34;7.15;;;2.17;;
16524;SDS011;8375;33.594;-117.718;2023-06-22T00:23:04;5.60;;;2.17;;
16524;SDS011;8375;33.594;-117.718;2023-06-22T00:25:36;7.28;;;2.38;;
16524;SDS011;8375;33.594;-117.718;2023-06-22T00:28:06;6.32;;;2.08;;
16524;SDS011;8375;33.594;-117.718;2023-06-22T00:30:35;6.60;;;2.10;;
16524;SDS011;8375;33.594;-117.718;2023-06-22T00:33:04;7.80;;;2.38;;
16524;SDS011;8375;33.594;-117.718;2023-06-22T00:35:33;9.05;;;2.47;;
16524;SDS011;8375;33.594;-117.718;2023-06-22T00:38:01;11.65;;;3.53;;
16524;SDS011;8375;33.594;-117.718;2023-06-22T00:40:31;8.52;;;2.88;;
16524;SDS011;8375;33.594;-117.718;2023-06-22T00:43:03;9.15;;;3.25;;
16524;SDS011;8375;33.594;-117.718;2023-06-22T00:45:32;7.82;;;2.60;;
16524;SDS011;8375;33.594;-117.718;2023-06-22T00:48:00;9.13;;;2.58;;
16524;SDS011;8375;33.594;-117.718;2023-06-22T00:50:30;7.28;;;2.60;;
16524;SDS011;8375;33.594;-117.718;2023-06-22T00:53:01;9.55;;;2.67;;
16524;SDS011;8375;33.594;-117.718;2023-06-22T00:55:33;10.23;;;3.03;;
16524;SDS011;8375;33.594;-117.718;2023-06-22T00:58:06;9.88;;;2.65;;
16524;SDS011;8375;33.594;-117.718;2023-06-22T01:00:36;8.15;;;2.80;;
16524;SDS011;8375;33.594;-117.718;2023-06-22T01:03:06;11.18;;;2.88;;
16524;SDS011;8375;33.594;-117.718;2023-06-22T01:05:36;8.38;;;2.83;;
16524;SDS011;8375;33.594;-117.718;2023-06-22T01:08:07;8.65;;;2.13;;
16524;SDS011;8375;33.594;-117.718;2023-06-22T01:10:46;12.05;;;2.88;;
16524;SDS011;8375;33.594;-117.718;2023-06-22T01:13:23;6.18;;;2.20;;
16524;SDS011;8375;33.594;-117.718;2023-06-22T01:15:57;8.55;;;2.50;;
16524;SDS011;8375;33.594;-117.718;2023-06-22T01:18:31;9.68;;;2.70;;
16524;SDS011;8375;33.594;-117.718;2023-06-22T01:21:04;7.68;;;2.40;;
16524;SDS011;8375;33.594;-117.718;2023-06-22T01:23:42;7.57;;;2.53;;
16524;SDS011;8375;33.594;-117.718;2023-06-22T01:26:28;8.63;;;2.50;;
16524;SDS011;8375;33.594;-117.718;2023-06-22T01:29:09;6.70;;;2.38;;
16524;SDS011;8375;33.594;-117.718;2023-06-22T01:31:40;8.35;;;2.63;;
16524;SDS011;8375;33.594;-117.718;2023-06-22T01:34:12;11.05;;;2.97;;
16524;SDS011;8375;33.594;-117.718;2023-06-22T01:36:41;8.75;;;2.53;;
16524;SDS011;8375;33.594;-117.718;2023-06-22T01:39:11;9.48;;;2.50;;
16524;SDS011;8375;33.594;-117.718;2023-06-22T01:41:42;11.85;;;3.08;;
16524;SDS011;8375;33.594;-117.718;2023-06-22T01:44:13;12.63;;;3.25;;
16524;SDS011;8375;33.594;-117.718;2023-06-22T01:46:42;9.38;;;2.67;;
16524;SDS011;8375;33.594;-117.718;2023-06-22T01:49:12;8.80;;;2.53;;
16524;SDS011;8375;33.594;-117.718;2023-06-22T01:51:41;8.18;;;2.40;;
16524;SDS011;8375;33.594;-117.718;2023-06-22T01:54:10;8.57;;;2.38;;
16524;SDS011;8375;33.594;-117.718;2023-06-22T01:56:38;6.57;;;2.20;;
16524;SDS011;8375;33.594;-117.718;2023-06-22T01:59:09;9.00;;;2.60;;
16524;SDS011;8375;33.594;-117.718;2023-06-22T02:01:44;10.02;;;2.75;;
16524;SDS011;8375;33.594;-117.718;2023-06-22T02:04:19;8.13;;;3.10;;
16524;SDS011;8375;33.594;-117.718;2023-06-22T02:06:58;9.60;;;2.88;;
16524;SDS011;8375;33.594;-117.718;2023-06-22T02:09:29;10.90;;;2.75;;
16524;SDS011;8375;33.594;-117.718;2023-06-22T02:11:59;11.95;;;3.05;;
16524;SDS011;8375;33.594;-117.718;2023-06-22T02:14:29;9.77;;;2.90;;
16524;SDS011;8375;33.594;-117.718;2023-06-22T02:17:00;16.30;;;3.20;;
16524;SDS011;8375;33.594;-117.718;2023-06-22T02:19:35;10.45;;;3.20;;
16524;SDS011;8375;33.594;-117.718;2023-06-22T02:22:05;12.60;;;2.67;;
16524;SDS011;8375;33.594;-117.718;2023-06-22T02:24:34;12.27;;;2.92;;
16524;SDS011;8375;33.594;-117.718;2023-06-22T02:27:02;10.45;;;3.42;;
16524;SDS011;8375;33.594;-117.718;2023-06-22T02:29:32;9.68;;;2.80;;
16524;SDS011;8375;33.594;-117.718;2023-06-22T02:32:03;9.18;;;2.78;;
16524;SDS011;8375;33.594;-117.718;2023-06-22T02:34:32;12.03;;;3.33;;
16524;SDS011;8375;33.594;-117.718;2023-06-22T02:37:02;10.03;;;3.20;;
16524;SDS011;8375;33.594;-117.718;2023-06-22T02:39:31;10.40;;;2.73;;
16524;SDS011;8375;33.594;-117.718;2023-06-22T02:42:00;8.63;;;2.80;;
16524;SDS011;8375;33.594;-117.718;2023-06-22T02:44:29;14.30;;;3.23;;
16524;SDS011;8375;33.594;-117.718;2023-06-22T02:46:58;13.75;;;2.78;;
16524;SDS011;8375;33.594;-117.718;2023-06-22T02:49:28;10.40;;;3.03;;
16524;SDS011;8375;33.594;-117.718;2023-06-22T02:51:57;11.47;;;3.20;;
16524;SDS011;8375;33.594;-117.718;2023-06-22T02:54:26;12.37;;;2.80;;
16524;SDS011;8375;33.594;-117.718;2023-06-22T02:56:55;12.63;;;2.90;;
16524;SDS011;8375;33.594;-117.718;2023-06-22T02:59:23;10.07;;;2.67;;
16524;SDS011;8375;33.594;-117.718;2023-06-22T03:01:52;12.70;;;3.27;;
16524;SDS011;8375;33.594;-117.718;2023-06-22T03:04:21;12.33;;;3.03;;
16524;SDS011;8375;33.594;-117.718;2023-06-22T03:06:51;16.73;;;3.73;;
16524;SDS011;8375;33.594;-117.718;2023-06-22T03:09:20;13.13;;;3.57;;
16524;SDS011;8375;33.594;-117.718;2023-06-22T03:11:48;11.37;;;3.87;;
16524;SDS011;8375;33.594;-117.718;2023-06-22T03:14:17;10.70;;;2.80;;
16524;SDS011;8375;33.594;-117.718;2023-06-22T03:16:46;14.67;;;2.90;;
16524;SDS011;8375;33.594;-117.718;2023-06-22T03:19:15;9.70;;;3.43;;
16524;SDS011;8375;33.594;-117.718;2023-06-22T03:21:45;17.73;;;3.30;;
16524;SDS011;8375;33.594;-117.718;2023-06-22T03:24:15;12.50;;;3.30;;
16524;SDS011;8375;33.594;-117.718;2023-06-22T03:26:44;11.47;;;4.30;;
16524;SDS011;8375;33.594;-117.718;2023-06-22T03:29:13;12.80;;;2.80;;
16524;SDS011;8375;33.594;-117.718;2023-06-22T03:31:42;13.33;;;3.07;;
16524;SDS011;8375;33.594;-117.718;2023-06-22T03:34:10;17.10;;;3.90;;
16524;SDS011;8375;33.594;-117.718;2023-06-22T03:36:39;11.53;;;3.17;;
16524;SDS011;8375;33.594;-117.718;2023-06-22T03:39:10;12.17;;;3.13;;
16524;SDS011;8375;33.594;-117.718;2023-06-22T03:41:41;13.83;;;3.33;;
16524;SDS011;8375;33.594;-117.718;2023-06-22T03:44:09;14.63;;;3.77;;
16524;SDS011;8375;33.594;-117.718;2023-06-22T03:46:38;12.23;;;3.30;;
16524;SDS011;8375;33.594;-117.718;2023-06-22T03:49:07;15.47;;;3.40;;
16524;SDS011;8375;33.594;-117.718;2023-06-22T03:51:35;11.67;;;3.20;;
16524;SDS011;8375;33.594;-117.718;2023-06-22T03:54:04;13.07;;;3.87;;
16524;SDS011;8375;33.594;-117.718;2023-06-22T03:56:33;18.00;;;4.03;;
16524;SDS011;8375;33.594;-117.718;2023-06-22T03:59:03;15.07;;;3.47;;
16524;SDS011;8375;33.594;-117.718;2023-06-22T04:01:32;16.50;;;4.33;;
16524;SDS011;8375;33.594;-117.718;2023-06-22T04:04:02;12.33;;;3.53;;
16524;SDS011;8375;33.594;-117.718;2023-06-22T04:06:31;14.47;;;3.33;;
16524;SDS011;8375;33.594;-117.718;2023-06-22T04:09:00;16.63;;;3.30;;
16524;SDS011;8375;33.594;-117.718;2023-06-22T04:11:29;11.60;;;3.40;;
16524;SDS011;8375;33.594;-117.718;2023-06-22T04:13:57;18.00;;;3.90;;
16524;SDS011;8375;33.594;-117.718;2023-06-22T04:16:28;17.20;;;3.53;;
16524;SDS011;8375;33.594;-117.718;2023-06-22T04:18:56;14.70;;;3.20;;
16524;SDS011;8375;33.594;-117.718;2023-06-22T04:21:25;16.20;;;3.37;;
16524;SDS011;8375;33.594;-117.718;2023-06-22T04:23:54;12.17;;;3.27;;
16524;SDS011;8375;33.594;-117.718;2023-06-22T04:26:23;14.57;;;3.07;;
16524;SDS011;8375;33.594;-117.718;2023-06-22T04:28:51;16.90;;;3.67;;
16524;SDS011;8375;33.594;-117.718;2023-06-22T04:31:21;17.20;;;3.63;;
16524;SDS011;8375;33.594;-117.718;2023-06-22T04:33:59;17.70;;;3.60;;
16524;SDS011;8375;33.594;-117.718;2023-06-22T04:36:32;16.33;;;3.57;;
16524;SDS011;8375;33.594;-117.718;2023-06-22T04:39:06;13.80;;;3.80;;
16524;SDS011;8375;33.594;-117.718;2023-06-22T04:41:36;14.00;;;3.20;;
16524;SDS011;8375;33.594;-117.718;2023-06-22T04:44:11;14.70;;;2.93;;
16524;SDS011;8375;33.594;-117.718;2023-06-22T04:46:40;14.43;;;3.10;;
16524;SDS011;8375;33.594;-117.718;2023-06-22T04:49:10;15.67;;;3.43;;
16524;SDS011;8375;33.594;-117.718;2023-06-22T04:51:39;20.73;;;4.13;;
16524;SDS011;8375;33.594;-117.718;2023-06-22T04:54:09;9.33;;;3.10;;
16524;SDS011;8375;33.594;-117.718;2023-06-22T04:56:38;14.53;;;3.00;;
16524;SDS011;8375;33.594;-117.718;2023-06-22T04:59:07;15.60;;;3.43;;
16524;SDS011;8375;33.594;-117.718;2023-06-22T05:01:38;14.87;;;3.10;;
16524;SDS011;8375;33.594;-117.718;2023-06-22T05:04:07;13.03;;;2.67;;
16524;SDS011;8375;33.594;-117.718;2023-06-22T05:06:38;13.93;;;3.37;;
16524;SDS011;8375;33.594;-117.718;2023-06-22T05:09:07;16.83;;;4.00;;
16524;SDS011;8375;33.594;-117.718;2023-06-22T05:11:37;15.47;;;3.17;;
16524;SDS011;8375;33.594;-117.718;2023-06-22T05:14:06;16.50;;;3.23;;
16524;SDS011;8375;33.594;-117.718;2023-06-22T05:16:35;16.60;;;3.77;;
16524;SDS011;8375;33.594;-117.718;2023-06-22T05:19:04;18.33;;;3.70;;
16524;SDS011;8375;33.594;-117.718;2023-06-22T05:21:34;21.30;;;4.40;;
16524;SDS011;8375;33.594;-117.718;2023-06-22T05:24:03;17.27;;;3.33;;
16524;SDS011;8375;33.594;-117.718;2023-06-22T05:26:33;18.00;;;4.10;;
16524;SDS011;8375;33.594;-117.718;2023-06-22T05:29:02;13.07;;;3.17;;
16524;SDS011;8375;33.594;-117.718;2023-06-22T05:31:32;16.20;;;3.63;;
16524;SDS011;8375;33.594;-117.718;2023-06-22T05:34:01;18.03;;;3.93;;
16524;SDS011;8375;33.594;-117.718;2023-06-22T05:36:29;18.17;;;3.93;;
16524;SDS011;8375;33.594;-117.718;2023-06-22T05:39:10;22.57;;;4.10;;
16524;SDS011;8375;33.594;-117.718;2023-06-22T05:41:40;16.87;;;3.67;;
16524;SDS011;8375;33.594;-117.718;2023-06-22T05:44:09;15.07;;;3.20;;
16524;SDS011;8375;33.594;-117.718;2023-06-22T05:46:40;13.73;;;3.37;;
16524;SDS011;8375;33.594;-117.718;2023-06-22T05:49:11;18.03;;;4.03;;
16524;SDS011;8375;33.594;-117.718;2023-06-22T05:51:41;12.30;;;3.67;;
16524;SDS011;8375;33.594;-117.718;2023-06-22T05:54:11;14.93;;;3.20;;
16524;SDS011;8375;33.594;-117.718;2023-06-22T05:56:43;13.43;;;3.47;;
16524;SDS011;8375;33.594;-117.718;2023-06-22T05:59:12;13.70;;;3.33;;
16524;SDS011;8375;33.594;-117.718;2023-06-22T06:01:40;12.70;;;3.57;;
16524;SDS011;8375;33.594;-117.718;2023-06-22T06:04:09;13.00;;;3.13;;
16524;SDS011;8375;33.594;-117.718;2023-06-22T06:06:38;11.00;;;3.70;;
16524;SDS011;8375;33.594;-117.718;2023-06-22T06:09:06;15.20;;;3.63;;
16524;SDS011;8375;33.594;-117.718;2023-06-22T06:11:37;13.07;;;3.07;;
16524;SDS011;8375;33.594;-117.718;2023-06-22T06:14:06;12.87;;;3.27;;
16524;SDS011;8375;33.594;-117.718;2023-06-22T06:16:35;11.27;;;3.03;;
16524;SDS011;8375;33.594;-117.718;2023-06-22T06:19:04;22.80;;;3.87;;
16524;SDS011;8375;33.594;-117.718;2023-06-22T06:21:32;18.83;;;4.23;;
16524;SDS011;8375;33.594;-117.718;2023-06-22T06:24:01;18.17;;;3.53;;
16524;SDS011;8375;33.594;-117.718;2023-06-22T06:26:30;22.43;;;4.00;;
16524;SDS011;8375;33.594;-117.718;2023-06-22T06:29:03;16.27;;;3.67;;
16524;SDS011;8375;33.594;-117.718;2023-06-22T06:31:32;15.50;;;4.00;;
16524;SDS011;8375;33.594;-117.718;2023-06-22T06:34:00;14.90;;;3.80;;
16524;SDS011;8375;33.594;-117.718;2023-06-22T06:36:30;21.30;;;5.10;;
16524;SDS011;8375;33.594;-117.718;2023-06-22T06:38:58;17.23;;;3.87;;
16524;SDS011;8375;33.594;-117.718;2023-06-22T06:41:27;20.60;;;4.27;;
16524;SDS011;8375;33.594;-117.718;2023-06-22T06:43:56;17.57;;;3.77;;
16524;SDS011;8375;33.594;-117.718;2023-06-22T06:46:26;18.03;;;4.00;;
16524;SDS011;8375;33.594;-117.718;2023-06-22T06:48:55;21.67;;;4.07;;
16524;SDS011;8375;33.594;-117.718;2023-06-22T06:51:24;19.90;;;4.23;;
16524;SDS011;8375;33.594;-117.718;2023-06-22T06:53:53;18.10;;;3.63;;
16524;SDS011;8375;33.594;-117.718;2023-06-22T06:56:22;18.23;;;4.40;;
16524;SDS011;8375;33.594;-117.718;2023-06-22T06:58:51;20.03;;;4.20;;
16524;SDS011;8375;33.594;-117.718;2023-06-22T07:01:20;15.10;;;4.43;;
16524;SDS011;8375;33.594;-117.718;2023-06-22T07:03:50;18.50;;;4.10;;
16524;SDS011;8375;33.594;-117.718;2023-06-22T07:06:19;18.07;;;3.77;;
16524;SDS011;8375;33.594;-117.718;2023-06-22T07:08:48;15.17;;;4.00;;
16524;SDS011;8375;33.594;-117.718;2023-06-22T07:11:16;11.67;;;3.40;;
16524;SDS011;8375;33.594;-117.718;2023-06-22T07:13:45;18.70;;;3.57;;
16524;SDS011;8375;33.594;-117.718;2023-06-22T07:16:14;17.00;;;3.80;;
16524;SDS011;8375;33.594;-117.718;2023-06-22T07:18:43;11.67;;;3.73;;
16524;SDS011;8375;33.594;-117.718;2023-06-22T07:21:14;16.50;;;3.70;;
16524;SDS011;8375;33.594;-117.718;2023-06-22T07:23:43;18.37;;;4.00;;
16524;SDS011;8375;33.594;-117.718;2023-06-22T07:26:11;13.30;;;3.90;;
16524;SDS011;8375;33.594;-117.718;2023-06-22T07:28:42;14.47;;;3.90;;
16524;SDS011;8375;33.594;-117.718;2023-06-22T07:31:11;13.03;;;3.63;;
16524;SDS011;8375;33.594;-117.718;2023-06-22T07:33:39;18.33;;;4.27;;
16524;SDS011;8375;33.594;-117.718;2023-06-22T07:36:08;15.13;;;4.13;;
16524;SDS011;8375;33.594;-117.718;2023-06-22T07:38:39;15.63;;;3.93;;
16524;SDS011;8375;33.594;-117.718;2023-06-22T07:41:08;15.53;;;3.33;;
16524;SDS011;8375;33.594;-117.718;2023-06-22T07:43:37;15.57;;;3.30;;
16524;SDS011;8375;33.594;-117.718;2023-06-22T07:46:06;15.50;;;3.67;;
16524;SDS011;8375;33.594;-117.718;2023-06-22T07:48:37;14.90;;;3.70;;
16524;SDS011;8375;33.594;-117.718;2023-06-22T07:51:07;18.83;;;4.40;;
16524;SDS011;8375;33.594;-117.718;2023-06-22T07:53:40;16.33;;;3.60;;
16524;SDS011;8375;33.594;-117.718;2023-06-22T07:56:10;21.17;;;3.57;;
16524;SDS011;8375;33.594;-117.718;2023-06-22T07:58:39;17.83;;;3.93;;
16524;SDS011;8375;33.594;-117.718;2023-06-22T08:01:08;13.20;;;4.00;;
16524;SDS011;8375;33.594;-117.718;2023-06-22T08:03:37;22.73;;;4.63;;
16524;SDS011;8375;33.594;-117.718;2023-06-22T08:06:07;17.50;;;3.60;;
16524;SDS011;8375;33.594;-117.718;2023-06-22T08:08:36;18.67;;;4.07;;
16524;SDS011;8375;33.594;-117.718;2023-06-22T08:11:07;15.80;;;3.97;;
16524;SDS011;8375;33.594;-117.718;2023-06-22T08:13:36;16.67;;;3.63;;
16524;SDS011;8375;33.594;-117.718;2023-06-22T08:16:05;15.07;;;4.10;;
16524;SDS011;8375;33.594;-117.718;2023-06-22T08:18:34;14.57;;;4.23;;
16524;SDS011;8375;33.594;-117.718;2023-06-22T08:21:03;14.20;;;4.20;;
16524;SDS011;8375;33.594;-117.718;2023-06-22T08:23:32;17.63;;;3.93;;
16524;SDS011;8375;33.594;-117.718;2023-06-22T08:26:01;13.63;;;3.50;;
16524;SDS011;8375;33.594;-117.718;2023-06-22T08:28:31;16.77;;;3.83;;
16524;SDS011;8375;33.594;-117.718;2023-06-22T08:31:00;14.97;;;3.73;;
16524;SDS011;8375;33.594;-117.718;2023-06-22T08:33:29;15.03;;;3.60;;
16524;SDS011;8375;33.594;-117.718;2023-06-22T08:35:58;15.90;;;3.73;;
16524;SDS011;8375;33.594;-117.718;2023-06-22T08:38:27;11.97;;;3.50;;
16524;SDS011;8375;33.594;-117.718;2023-06-22T08:40:56;19.00;;;3.73;;
16524;SDS011;8375;33.594;-117.718;2023-06-22T08:43:25;17.17;;;4.17;;
16524;SDS011;8375;33.594;-117.718;2023-06-22T08:45:56;18.50;;;3.63;;
16524;SDS011;8375;33.594;-117.718;2023-06-22T08:48:24;19.47;;;4.73;;
16524;SDS011;8375;33.594;-117.718;2023-06-22T08:50:53;17.70;;;3.97;;
16524;SDS011;8375;33.594;-117.718;2023-06-22T08:53:22;17.70;;;4.30;;
16524;SDS011;8375;33.594;-117.718;2023-06-22T08:55:51;18.57;;;3.87;;
16524;SDS011;8375;33.594;-117.718;2023-06-22T08:58:19;15.13;;;4.00;;
16524;SDS011;8375;33.594;-117.718;2023-06-22T09:00:49;19.33;;;4.00;;
16524;SDS011;8375;33.594;-117.718;2023-06-22T09:03:20;17.90;;;3.97;;
16524;SDS011;8375;33.594;-117.718;2023-06-22T09:05:52;17.33;;;3.80;;
16524;SDS011;8375;33.594;-117.718;2023-06-22T09:08:21;18.10;;;4.40;;
16524;SDS011;8375;33.594;-117.718;2023-06-22T09:10:50;16.37;;;4.03;;
16524;SDS011;8375;33.594;-117.718;2023-06-22T09:13:18;13.83;;;4.30;;
16524;SDS011;8375;33.594;-117.718;2023-06-22T09:15:47;16.00;;;4.07;;
16524;SDS011;8375;33.594;-117.718;2023-06-22T09:18:16;15.20;;;4.70;;
16524;SDS011;8375;33.594;-117.718;2023-06-22T09:20:47;16.67;;;4.10;;
16524;SDS011;8375;33.594;-117.718;2023-06-22T09:23:15;15.47;;;4.23;;
16524;SDS011;8375;33.594;-117.718;2023-06-22T09:25:44;15.80;;;3.97;;
16524;SDS011;8375;33.594;-117.718;2023-06-22T09:28:13;17.17;;;3.90;;
16524;SDS011;8375;33.594;-117.718;2023-06-22T09:30:42;18.23;;;4.47;;
16524;SDS011;8375;33.594;-117.718;2023-06-22T09:33:11;13.70;;;3.57;;
16524;SDS011;8375;33.594;-117.718;2023-06-22T09:35:40;14.80;;;4.40;;
16524;SDS011;8375;33.594;-117.718;2023-06-22T09:38:10;16.43;;;5.00;;
16524;SDS011;8375;33.594;-117.718;2023-06-22T09:40:39;19.27;;;4.27;;
16524;SDS011;8375;33.594;-117.718;2023-06-22T09:43:08;17.87;;;3.90;;
16524;SDS011;8375;33.594;-117.718;2023-06-22T09:45:37;22.60;;;4.23;;
16524;SDS011;8375;33.594;-117.718;2023-06-22T09:48:06;17.00;;;3.80;;
16524;SDS011;8375;33.594;-117.718;2023-06-22T09:50:35;17.60;;;4.20;;
16524;SDS011;8375;33.594;-117.718;2023-06-22T09:53:04;20.27;;;4.43;;
16524;SDS011;8375;33.594;-117.718;2023-06-22T09:55:34;14.23;;;5.03;;
16524;SDS011;8375;33.594;-117.718;2023-06-22T09:58:03;13.50;;;4.47;;
16524;SDS011;8375;33.594;-117.718;2023-06-22T10:00:31;12.23;;;4.13;;
16524;SDS011;8375;33.594;-117.718;2023-06-22T10:03:00;17.17;;;3.90;;
16524;SDS011;8375;33.594;-117.718;2023-06-22T10:05:29;16.80;;;3.63;;
16524;SDS011;8375;33.594;-117.718;2023-06-22T10:07:57;18.23;;;4.57;;
16524;SDS011;8375;33.594;-117.718;2023-06-22T10:10:26;14.13;;;4.30;;
16524;SDS011;8375;33.594;-117.718;2023-06-22T10:12:57;15.57;;;4.20;;
16524;SDS011;8375;33.594;-117.718;2023-06-22T10:15:30;15.67;;;4.77;;
16524;SDS011;8375;33.594;-117.718;2023-06-22T10:17:58;14.40;;;4.43;;
16524;SDS011;8375;33.594;-117.718;2023-06-22T10:20:27;16.57;;;3.80;;
16524;SDS011;8375;33.594;-117.718;2023-06-22T10:22:56;14.70;;;4.03;;
16524;SDS011;8375;33.594;-117.718;2023-06-22T10:25:25;19.93;;;4.50;;
16524;SDS011;8375;33.594;-117.718;2023-06-22T10:27:54;15.57;;;4.17;;
16524;SDS011;8375;33.594;-117.718;2023-06-22T10:30:24;21.77;;;4.63;;
16524;SDS011;8375;33.594;-117.718;2023-06-22T10:32:54;16.57;;;4.30;;
16524;SDS011;8375;33.594;-117.718;2023-06-22T10:35:23;16.80;;;4.77;;
16524;SDS011;8375;33.594;-117.718;2023-06-22T10:37:52;22.00;;;4.97;;
16524;SDS011;8375;33.594;-117.718;2023-06-22T10:40:22;18.70;;;4.77;;
16524;SDS011;8375;33.594;-117.718;2023-06-22T10:42:51;18.37;;;4.70;;
16524;SDS011;8375;33.594;-117.718;2023-06-22T10:45:21;15.43;;;4.43;;
16524;SDS011;8375;33.594;-117.718;2023-06-22T10:47:50;15.90;;;4.47;;
16524;SDS011;8375;33.594;-117.718;2023-06-22T10:50:19;18.73;;;4.57;;
16524;SDS011;8375;33.594;-117.718;2023-06-22T10:52:49;12.43;;;3.80;;
16524;SDS011;8375;33.594;-117.718;2023-06-22T10:55:18;15.47;;;4.40;;
16524;SDS011;8375;33.594;-117.718;2023-06-22T10:57:47;13.67;;;3.90;;
16524;SDS011;8375;33.594;-117.718;2023-06-22T11:00:16;16.97;;;4.20;;
16524;SDS011;8375;33.594;-117.718;2023-06-22T11:02:46;18.73;;;5.20;;
16524;SDS011;8375;33.594;-117.718;2023-06-22T11:05:15;17.33;;;5.17;;
16524;SDS011;8375;33.594;-117.718;2023-06-22T11:07:44;20.60;;;4.80;;
16524;SDS011;8375;33.594;-117.718;2023-06-22T11:10:14;15.07;;;4.40;;
16524;SDS011;8375;33.594;-117.718;2023-06-22T11:12:43;18.97;;;5.00;;
16524;SDS011;8375;33.594;-117.718;2023-06-22T11:15:11;17.57;;;4.60;;
16524;SDS011;8375;33.594;-117.718;2023-06-22T11:17:40;10.20;;;4.33;;
16524;SDS011;8375;33.594;-117.718;2023-06-22T11:20:11;18.80;;;4.90;;
16524;SDS011;8375;33.594;-117.718;2023-06-22T11:22:40;15.20;;;5.00;;
16524;SDS011;8375;33.594;-117.718;2023-06-22T11:25:09;14.87;;;4.70;;
16524;SDS011;8375;33.594;-117.718;2023-06-22T11:27:39;11.03;;;4.17;;
16524;SDS011;8375;33.594;-117.718;2023-06-22T11:30:08;19.60;;;4.97;;
16524;SDS011;8375;33.594;-117.718;2023-06-22T11:32:37;16.40;;;3.70;;
16524;SDS011;8375;33.594;-117.718;2023-06-22T11:35:05;13.13;;;3.90;;
16524;SDS011;8375;33.594;-117.718;2023-06-22T11:37:36;15.23;;;4.10;;
16524;SDS011;8375;33.594;-117.718;2023-06-22T11:40:05;12.67;;;4.23;;
16524;SDS011;8375;33.594;-117.718;2023-06-22T11:42:35;14.90;;;4.30;;
16524;SDS011;8375;33.594;-117.718;2023-06-22T11:45:04;15.10;;;3.93;;
16524;SDS011;8375;33.594;-117.718;2023-06-22T11:47:34;19.47;;;5.53;;
16524;SDS011;8375;33.594;-117.718;2023-06-22T11:50:03;14.87;;;4.17;;
16524;SDS011;8375;33.594;-117.718;2023-06-22T11:52:33;21.17;;;4.90;;
16524;SDS011;8375;33.594;-117.718;2023-06-22T11:55:04;16.50;;;4.70;;
16524;SDS011;8375;33.594;-117.718;2023-06-22T11:57:33;15.93;;;5.10;;
16524;SDS011;8375;33.594;-117.718;2023-06-22T12:00:04;11.80;;;4.90;;
16524;SDS011;8375;33.594;-117.718;2023-06-22T12:02:43;13.93;;;4.27;;
16524;SDS011;8375;33.594;-117.718;2023-06-22T12:05:12;13.53;;;4.60;;
16524;SDS011;8375;33.594;-117.718;2023-06-22T12:07:42;18.47;;;5.03;;
16524;SDS011;8375;33.594;-117.718;2023-06-22T12:10:11;15.93;;;4.77;;
16524;SDS011;8375;33.594;-117.718;2023-06-22T12:12:40;14.07;;;4.70;;
16524;SDS011;8375;33.594;-117.718;2023-06-22T12:15:09;12.90;;;4.00;;
16524;SDS011;8375;33.594;-117.718;2023-06-22T12:17:38;16.90;;;4.60;;
16524;SDS011;8375;33.594;-117.718;2023-06-22T12:20:07;14.87;;;5.20;;
16524;SDS011;8375;33.594;-117.718;2023-06-22T12:22:37;18.97;;;5.07;;
16524;SDS011;8375;33.594;-117.718;2023-06-22T12:25:07;23.10;;;5.13;;
16524;SDS011;8375;33.594;-117.718;2023-06-22T12:27:36;20.37;;;5.60;;
16524;SDS011;8375;33.594;-117.718;2023-06-22T12:30:06;34.93;;;7.90;;
16524;SDS011;8375;33.594;-117.718;2023-06-22T12:32:36;27.37;;;6.57;;
16524;SDS011;8375;33.594;-117.718;2023-06-22T12:35:05;38.47;;;8.63;;
16524;SDS011;8375;33.594;-117.718;2023-06-22T12:37:39;17.53;;;5.60;;
16524;SDS011;8375;33.594;-117.718;2023-06-22T12:40:10;14.53;;;4.73;;
16524;SDS011;8375;33.594;-117.718;2023-06-22T12:42:39;14.30;;;4.57;;
16524;SDS011;8375;33.594;-117.718;2023-06-22T12:45:09;19.13;;;4.80;;
16524;SDS011;8375;33.594;-117.718;2023-06-22T12:47:38;17.27;;;5.00;;
16524;SDS011;8375;33.594;-117.718;2023-06-22T12:50:07;16.83;;;5.10;;
16524;SDS011;8375;33.594;-117.718;2023-06-22T12:52:36;15.77;;;4.60;;
16524;SDS011;8375;33.594;-117.718;2023-06-22T12:55:06;18.20;;;5.87;;
16524;SDS011;8375;33.594;-117.718;2023-06-22T12:57:37;14.53;;;5.03;;
16524;SDS011;8375;33.594;-117.718;2023-06-22T13:00:06;14.07;;;4.90;;
16524;SDS011;8375;33.594;-117.718;2023-06-22T13:02:37;17.00;;;5.40;;
16524;SDS011;8375;33.594;-117.718;2023-06-22T13:05:06;19.43;;;5.17;;
16524;SDS011;8375;33.594;-117.718;2023-06-22T13:07:35;16.50;;;5.30;;
16524;SDS011;8375;33.594;-117.718;2023-06-22T13:10:04;21.60;;;5.53;;
16524;SDS011;8375;33.594;-117.718;2023-06-22T13:12:34;19.90;;;5.60;;
16524;SDS011;8375;33.594;-117.718;2023-06-22T13:15:04;18.20;;;5.33;;
16524;SDS011;8375;33.594;-117.718;2023-06-22T13:17:34;17.60;;;5.60;;
16524;SDS011;8375;33.594;-117.718;2023-06-22T13:20:03;19.47;;;6.13;;
16524;SDS011;8375;33.594;-117.718;2023-06-22T13:22:33;18.73;;;5.70;;
16524;SDS011;8375;33.594;-117.718;2023-06-22T13:25:06;27.37;;;5.87;;
16524;SDS011;8375;33.594;-117.718;2023-06-22T13:27:37;22.83;;;5.97;;
16524;SDS011;8375;33.594;-117.718;2023-06-22T13:30:08;18.20;;;6.30;;
16524;SDS011;8375;33.594;-117.718;2023-06-22T13:32:38;18.53;;;5.90;;
16524;SDS011;8375;33.594;-117.718;2023-06-22T13:35:07;23.30;;;6.70;;
16524;SDS011;8375;33.594;-117.718;2023-06-22T13:37:37;23.73;;;7.57;;
16524;SDS011;8375;33.594;-117.718;2023-06-22T13:40:06;21.17;;;6.03;;
16524;SDS011;8375;33.594;-117.718;2023-06-22T13:42:35;26.83;;;6.83;;
16524;SDS011;8375;33.594;-117.718;2023-06-22T13:45:04;27.43;;;6.50;;
16524;SDS011;8375;33.594;-117.718;2023-06-22T13:47:35;20.20;;;7.10;;
16524;SDS011;8375;33.594;-117.718;2023-06-22T13:50:04;20.37;;;6.87;;
16524;SDS011;8375;33.594;-117.718;2023-06-22T13:52:34;19.00;;;6.37;;
16524;SDS011;8375;33.594;-117.718;2023-06-22T13:55:02;23.37;;;6.17;;
16524;SDS011;8375;33.594;-117.718;2023-06-22T13:57:32;19.13;;;6.40;;
16524;SDS011;8375;33.594;-117.718;2023-06-22T14:00:01;25.00;;;5.90;;
16524;SDS011;8375;33.594;-117.718;2023-06-22T14:02:35;14.97;;;5.47;;
16524;SDS011;8375;33.594;-117.718;2023-06-22T14:05:05;14.87;;;5.67;;
16524;SDS011;8375;33.594;-117.718;2023-06-22T14:07:34;21.93;;;5.77;;
16524;SDS011;8375;33.594;-117.718;2023-06-22T14:10:03;18.07;;;6.00;;
16524;SDS011;8375;33.594;-117.718;2023-06-22T14:12:32;18.53;;;5.20;;
16524;SDS011;8375;33.594;-117.718;2023-06-22T14:15:01;16.97;;;5.00;;
16524;SDS011;8375;33.594;-117.718;2023-06-22T14:17:30;19.07;;;5.43;;
16524;SDS011;8375;33.594;-117.718;2023-06-22T14:20:00;13.93;;;4.63;;
16524;SDS011;8375;33.594;-117.718;2023-06-22T14:22:29;19.20;;;5.93;;
16524;SDS011;8375;33.594;-117.718;2023-06-22T14:24:57;13.67;;;4.73;;